Mariq — SVA2152 — position and weather

sailwx.info

Track history (hours):
 
Tides and Currents Weather Stations Pressure Air Temp Water Temp Dewpoint Dewpoint Depression Visibility Wind Speed Wind Dir Waves Ship Positions

Mariq

Last reported at 2018-Feb-08 14:00 UTC. Time now 2018-Feb-23 17:55 UTC.
Position N 37°39' E 025°15'.
Warning: this ship's position is 15 days out of date.

Length 57 m.

Type: Tanker. MMSI: 239758424.

Date/timePositionNaut miles runAvg speedWind from/ knotsBaromVisibWave heightAir tempDewpointWater temp
2018-Feb-08 14:00N 37°39' E 025°15'1010.3
2018-Feb-08 13:00N 37°35' E 025°27'  
2018-Feb-02 23:53N 37°30' E 025°55'4 9.5
2018-Feb-02 23:27N 37°31' E 025°51'6 9.4
2018-Feb-02 22:46N 37°33' E 025°43'3 9.3
2018-Feb-02 22:30N 37°33' E 025°40'5 9.8
2018-Feb-02 22:00N 37°34' E 025°34'5 9.6
2018-Feb-02 21:30N 37°36' E 025°28'5 9.7
2018-Feb-02 21:00N 37°37' E 025°22'5 9.7
2018-Feb-02 20:31N 37°38' E 025°16'6 9.7
2018-Feb-02 19:53N 37°40' E 025°09'14 9.4
2018-Feb-02 18:20N 37°41' E 024°51'28 9.2
2018-Feb-02 15:19N 37°45' E 024°16'  
Track history (hours):
 
Tides and Currents Weather Stations Pressure Air Temp Water Temp Dewpoint Dewpoint Depression Visibility Wind Speed Wind Dir Waves Ship Positions

Mariq

Last reported at 2018-Feb-08 14:00 UTC. Time now 2018-Feb-23 17:56 UTC.
Position N 37°39' E 025°15'.
Warning: this ship's position is 15 days out of date.

Length 57 m.

Type: Tanker. MMSI: 239758424.

Date/timePositionNaut miles runAvg speedWind from/ knotsBaromVisibWave heightAir tempDewpointWater temp
2018-Feb-08 14:00N 37°39' E 025°15'1010.3
2018-Feb-08 13:00N 37°35' E 025°27'  
2018-Feb-02 23:53N 37°30' E 025°55'4 9.5
2018-Feb-02 23:27N 37°31' E 025°51'6 9.4
2018-Feb-02 22:46N 37°33' E 025°43'3 9.3
2018-Feb-02 22:30N 37°33' E 025°40'5 9.8
2018-Feb-02 22:00N 37°34' E 025°34'5 9.6
2018-Feb-02 21:30N 37°36' E 025°28'5 9.7
2018-Feb-02 21:00N 37°37' E 025°22'5 9.7
2018-Feb-02 20:31N 37°38' E 025°16'6 9.7
2018-Feb-02 19:53N 37°40' E 025°09'14 9.4
2018-Feb-02 18:20N 37°41' E 024°51'28 9.2
2018-Feb-02 15:19N 37°45' E 024°16'  

Dump ship's entire track history